Terminal Aerodrome Forecast
Issued by NWS

Home | Current Version | Previous Version | Text Only | Print | Product List | Glossary On
Versions: 1 2 3 4 5 6 7 8 9 10 11 12 13 14
000
FTUS45 KGJT 231120
TAFASE
TAF
KASE 231120Z 2312/2412 23005KT P6SM FEW140 SCT200
     FM231400 VRB03KT P6SM SCT090 SCT150
     FM231800 34006KT P6SM BKN130
     FM240100 18007KT P6SM BKN140=

USA.gov is the U.S. government's official web portal to all federal, state and local government web resources and services.